sensor_id;sensor_type;location;lat;lon;timestamp;temperature;humidity
48043;DHT22;33988;47.992;8.820;2023-04-08T00:00:43;13.00;51.90
48043;DHT22;33988;47.992;8.820;2023-04-08T00:03:11;13.00;52.00
48043;DHT22;33988;47.992;8.820;2023-04-08T00:05:38;13.00;52.00
48043;DHT22;33988;47.992;8.820;2023-04-08T00:08:05;13.00;52.00
48043;DHT22;33988;47.992;8.820;2023-04-08T00:10:32;13.00;52.00
48043;DHT22;33988;47.992;8.820;2023-04-08T00:13:02;13.00;52.00
48043;DHT22;33988;47.992;8.820;2023-04-08T00:15:29;13.00;52.10
48043;DHT22;33988;47.992;8.820;2023-04-08T00:17:56;13.00;52.10
48043;DHT22;33988;47.992;8.820;2023-04-08T00:20:23;12.90;52.00
48043;DHT22;33988;47.992;8.820;2023-04-08T00:22:50;12.90;52.00
48043;DHT22;33988;47.992;8.820;2023-04-08T00:25:20;12.90;52.10
48043;DHT22;33988;47.992;8.820;2023-04-08T00:27:51;12.90;52.10
48043;DHT22;33988;47.992;8.820;2023-04-08T00:30:20;12.90;52.10
48043;DHT22;33988;47.992;8.820;2023-04-08T00:32:49;12.90;52.10
48043;DHT22;33988;47.992;8.820;2023-04-08T00:35:16;12.90;52.20
48043;DHT22;33988;47.992;8.820;2023-04-08T00:37:43;12.90;52.20
48043;DHT22;33988;47.992;8.820;2023-04-08T00:40:11;12.90;52.30
48043;DHT22;33988;47.992;8.820;2023-04-08T00:42:38;12.90;52.20
48043;DHT22;33988;47.992;8.820;2023-04-08T00:45:08;12.90;52.30
48043;DHT22;33988;47.992;8.820;2023-04-08T00:47:37;12.90;52.30
48043;DHT22;33988;47.992;8.820;2023-04-08T00:50:07;12.80;52.30
48043;DHT22;33988;47.992;8.820;2023-04-08T00:52:36;12.80;52.40
48043;DHT22;33988;47.992;8.820;2023-04-08T00:55:03;12.80;52.40
48043;DHT22;33988;47.992;8.820;2023-04-08T00:57:30;12.80;52.40
48043;DHT22;33988;47.992;8.820;2023-04-08T00:59:58;12.80;52.40
48043;DHT22;33988;47.992;8.820;2023-04-08T01:02:30;12.80;52.50
48043;DHT22;33988;47.992;8.820;2023-04-08T01:07:59;12.80;52.60
48043;DHT22;33988;47.992;8.820;2023-04-08T01:10:30;12.80;52.50
48043;DHT22;33988;47.992;8.820;2023-04-08T01:13:08;12.80;52.50
48043;DHT22;33988;47.992;8.820;2023-04-08T01:15:38;12.80;52.60
48043;DHT22;33988;47.992;8.820;2023-04-08T01:18:08;12.80;52.40
48043;DHT22;33988;47.992;8.820;2023-04-08T01:20:39;12.80;53.20
48043;DHT22;33988;47.992;8.820;2023-04-08T01:23:41;12.80;52.60
48043;DHT22;33988;47.992;8.820;2023-04-08T01:26:11;12.70;52.90
48043;DHT22;33988;47.992;8.820;2023-04-08T01:28:39;12.80;52.70
48043;DHT22;33988;47.992;8.820;2023-04-08T01:31:09;12.80;52.60
48043;DHT22;33988;47.992;8.820;2023-04-08T01:33:37;12.80;52.70
48043;DHT22;33988;47.992;8.820;2023-04-08T01:36:07;12.80;52.80
48043;DHT22;33988;47.992;8.820;2023-04-08T01:38:37;12.80;52.90
48043;DHT22;33988;47.992;8.820;2023-04-08T01:41:05;12.80;52.90
48043;DHT22;33988;47.992;8.820;2023-04-08T01:43:34;12.80;52.90
48043;DHT22;33988;47.992;8.820;2023-04-08T01:46:01;12.80;52.90
48043;DHT22;33988;47.992;8.820;2023-04-08T01:48:31;12.80;52.90
48043;DHT22;33988;47.992;8.820;2023-04-08T01:51:01;12.80;52.90
48043;DHT22;33988;47.992;8.820;2023-04-08T01:53:30;12.80;53.00
48043;DHT22;33988;47.992;8.820;2023-04-08T01:56:02;12.80;53.00
48043;DHT22;33988;47.992;8.820;2023-04-08T01:58:41;12.80;53.10
48043;DHT22;33988;47.992;8.820;2023-04-08T02:01:16;12.80;53.20
48043;DHT22;33988;47.992;8.820;2023-04-08T02:03:46;12.90;53.10
48043;DHT22;33988;47.992;8.820;2023-04-08T02:06:14;12.90;53.10
48043;DHT22;33988;47.992;8.820;2023-04-08T02:08:41;12.90;53.00
48043;DHT22;33988;47.992;8.820;2023-04-08T02:11:08;12.90;53.00
48043;DHT22;33988;47.992;8.820;2023-04-08T02:13:38;12.90;53.00
48043;DHT22;33988;47.992;8.820;2023-04-08T02:19:23;12.90;53.20
48043;DHT22;33988;47.992;8.820;2023-04-08T02:22:06;12.90;52.90
48043;DHT22;33988;47.992;8.820;2023-04-08T02:24:38;12.90;53.10
48043;DHT22;33988;47.992;8.820;2023-04-08T02:27:09;12.70;53.00
48043;DHT22;33988;47.992;8.820;2023-04-08T02:29:37;12.90;52.80
48043;DHT22;33988;47.992;8.820;2023-04-08T02:32:07;12.90;52.90
48043;DHT22;33988;47.992;8.820;2023-04-08T02:34:39;12.80;53.00
48043;DHT22;33988;47.992;8.820;2023-04-08T02:37:08;12.80;53.10
48043;DHT22;33988;47.992;8.820;2023-04-08T02:39:37;12.80;53.20
48043;DHT22;33988;47.992;8.820;2023-04-08T02:42:07;12.80;53.30
48043;DHT22;33988;47.992;8.820;2023-04-08T02:44:36;12.80;53.40
48043;DHT22;33988;47.992;8.820;2023-04-08T02:47:03;12.80;53.50
48043;DHT22;33988;47.992;8.820;2023-04-08T02:49:30;12.80;54.20
48043;DHT22;33988;47.992;8.820;2023-04-08T02:51:57;12.90;53.70
48043;DHT22;33988;47.992;8.820;2023-04-08T02:54:24;12.90;53.70
48043;DHT22;33988;47.992;8.820;2023-04-08T02:56:51;13.00;53.70
48043;DHT22;33988;47.992;8.820;2023-04-08T02:59:18;13.00;53.70
48043;DHT22;33988;47.992;8.820;2023-04-08T03:01:47;13.00;53.70
48043;DHT22;33988;47.992;8.820;2023-04-08T03:04:14;13.00;53.80
48043;DHT22;33988;47.992;8.820;2023-04-08T03:06:44;13.00;53.70
48043;DHT22;33988;47.992;8.820;2023-04-08T03:09:10;13.00;53.80
48043;DHT22;33988;47.992;8.820;2023-04-08T03:11:37;13.00;53.80
48043;DHT22;33988;47.992;8.820;2023-04-08T03:14:04;13.10;53.80
48043;DHT22;33988;47.992;8.820;2023-04-08T03:16:31;13.10;53.80
48043;DHT22;33988;47.992;8.820;2023-04-08T03:19:00;13.10;53.80
48043;DHT22;33988;47.992;8.820;2023-04-08T03:21:29;13.10;53.80
48043;DHT22;33988;47.992;8.820;2023-04-08T03:24:01;13.10;53.80
48043;DHT22;33988;47.992;8.820;2023-04-08T03:26:30;13.20;53.90
48043;DHT22;33988;47.992;8.820;2023-04-08T03:28:57;13.00;53.90
48043;DHT22;33988;47.992;8.820;2023-04-08T03:31:28;13.20;53.70
48043;DHT22;33988;47.992;8.820;2023-04-08T03:33:55;13.20;53.70
48043;DHT22;33988;47.992;8.820;2023-04-08T03:36:22;13.20;53.70
48043;DHT22;33988;47.992;8.820;2023-04-08T03:38:49;13.20;53.70
48043;DHT22;33988;47.992;8.820;2023-04-08T03:41:19;13.30;53.80
48043;DHT22;33988;47.992;8.820;2023-04-08T03:43:46;13.30;53.80
48043;DHT22;33988;47.992;8.820;2023-04-08T03:46:13;13.30;53.80
48043;DHT22;33988;47.992;8.820;2023-04-08T03:48:40;13.30;53.80
48043;DHT22;33988;47.992;8.820;2023-04-08T03:51:12;13.30;53.80
48043;DHT22;33988;47.992;8.820;2023-04-08T03:53:41;13.30;53.80
48043;DHT22;33988;47.992;8.820;2023-04-08T03:56:08;13.10;54.00
48043;DHT22;33988;47.992;8.820;2023-04-08T03:58:37;13.30;53.70
48043;DHT22;33988;47.992;8.820;2023-04-08T04:01:09;13.30;53.70
48043;DHT22;33988;47.992;8.820;2023-04-08T04:03:36;13.30;53.80
48043;DHT22;33988;47.992;8.820;2023-04-08T04:06:05;13.40;53.80
48043;DHT22;33988;47.992;8.820;2023-04-08T04:08:32;13.40;53.70
48043;DHT22;33988;47.992;8.820;2023-04-08T04:10:59;13.40;53.60
48043;DHT22;33988;47.992;8.820;2023-04-08T04:13:26;13.40;53.40
48043;DHT22;33988;47.992;8.820;2023-04-08T04:15:58;13.40;53.20
48043;DHT22;33988;47.992;8.820;2023-04-08T04:18:29;13.30;53.00
48043;DHT22;33988;47.992;8.820;2023-04-08T04:21:03;13.10;53.00
48043;DHT22;33988;47.992;8.820;2023-04-08T04:23:35;13.20;52.80
48043;DHT22;33988;47.992;8.820;2023-04-08T04:26:08;13.20;52.80
48043;DHT22;33988;47.992;8.820;2023-04-08T04:28:37;13.20;52.80
48043;DHT22;33988;47.992;8.820;2023-04-08T04:31:04;13.20;52.70
48043;DHT22;33988;47.992;8.820;2023-04-08T04:33:31;13.10;52.70
48043;DHT22;33988;47.992;8.820;2023-04-08T04:35:58;13.10;52.80
48043;DHT22;33988;47.992;8.820;2023-04-08T04:38:25;13.00;52.70
48043;DHT22;33988;47.992;8.820;2023-04-08T04:40:52;13.00;52.80
48043;DHT22;33988;47.992;8.820;2023-04-08T04:43:19;13.00;52.90
48043;DHT22;33988;47.992;8.820;2023-04-08T04:45:48;13.00;52.90
48043;DHT22;33988;47.992;8.820;2023-04-08T04:48:15;13.00;53.00
48043;DHT22;33988;47.992;8.820;2023-04-08T04:50:42;12.90;52.90
48043;DHT22;33988;47.992;8.820;2023-04-08T04:53:09;12.90;53.00
48043;DHT22;33988;47.992;8.820;2023-04-08T04:55:38;12.90;53.10
48043;DHT22;33988;47.992;8.820;2023-04-08T04:58:05;12.90;53.10
48043;DHT22;33988;47.992;8.820;2023-04-08T05:00:35;12.90;53.10
48043;DHT22;33988;47.992;8.820;2023-04-08T05:03:04;12.90;53.20
48043;DHT22;33988;47.992;8.820;2023-04-08T05:05:31;12.80;53.20
48043;DHT22;33988;47.992;8.820;2023-04-08T05:07:58;12.80;53.90
48043;DHT22;33988;47.992;8.820;2023-04-08T05:10:27;12.80;53.30
48043;DHT22;33988;47.992;8.820;2023-04-08T05:12:54;12.80;53.40
48043;DHT22;33988;47.992;8.820;2023-04-08T05:15:21;12.80;53.50
48043;DHT22;33988;47.992;8.820;2023-04-08T05:17:48;12.80;53.50
48043;DHT22;33988;47.992;8.820;2023-04-08T05:20:15;12.80;53.60
48043;DHT22;33988;47.992;8.820;2023-04-08T05:22:43;12.80;53.60
48043;DHT22;33988;47.992;8.820;2023-04-08T05:25:10;12.90;53.80
48043;DHT22;33988;47.992;8.820;2023-04-08T05:27:40;12.90;53.80
48043;DHT22;33988;47.992;8.820;2023-04-08T05:30:07;12.90;53.80
48043;DHT22;33988;47.992;8.820;2023-04-08T05:32:35;12.90;53.90
48043;DHT22;33988;47.992;8.820;2023-04-08T05:35:04;12.90;53.90
48043;DHT22;33988;47.992;8.820;2023-04-08T05:37:31;13.00;53.90
48043;DHT22;33988;47.992;8.820;2023-04-08T05:39:58;12.90;53.80
48043;DHT22;33988;47.992;8.820;2023-04-08T05:42:28;13.00;53.80
48043;DHT22;33988;47.992;8.820;2023-04-08T05:44:57;13.00;53.80
48043;DHT22;33988;47.992;8.820;2023-04-08T05:47:24;12.80;53.90
48043;DHT22;33988;47.992;8.820;2023-04-08T05:49:53;12.90;53.70
48043;DHT22;33988;47.992;8.820;2023-04-08T05:52:23;13.00;53.70
48043;DHT22;33988;47.992;8.820;2023-04-08T05:54:52;13.00;53.80
48043;DHT22;33988;47.992;8.820;2023-04-08T05:57:19;13.00;53.80
48043;DHT22;33988;47.992;8.820;2023-04-08T05:59:48;13.00;53.80
48043;DHT22;33988;47.992;8.820;2023-04-08T06:02:18;13.00;53.90
48043;DHT22;33988;47.992;8.820;2023-04-08T06:04:45;13.10;53.90
48043;DHT22;33988;47.992;8.820;2023-04-08T06:07:12;13.00;53.80
48043;DHT22;33988;47.992;8.820;2023-04-08T06:09:39;13.00;53.80
48043;DHT22;33988;47.992;8.820;2023-04-08T06:12:06;13.10;53.90
48043;DHT22;33988;47.992;8.820;2023-04-08T06:14:33;13.00;53.90
48043;DHT22;33988;47.992;8.820;2023-04-08T06:17:05;13.10;53.90
48043;DHT22;33988;47.992;8.820;2023-04-08T06:19:34;13.10;54.00
48043;DHT22;33988;47.992;8.820;2023-04-08T06:22:03;13.10;54.10
48043;DHT22;33988;47.992;8.820;2023-04-08T06:24:35;13.10;54.10
48043;DHT22;33988;47.992;8.820;2023-04-08T06:27:02;13.10;54.30
48043;DHT22;33988;47.992;8.820;2023-04-08T06:29:29;13.10;54.30
48043;DHT22;33988;47.992;8.820;2023-04-08T06:31:59;13.10;54.30
48043;DHT22;33988;47.992;8.820;2023-04-08T06:34:29;13.20;54.40
48043;DHT22;33988;47.992;8.820;2023-04-08T06:36:58;13.20;54.40
48043;DHT22;33988;47.992;8.820;2023-04-08T06:39:27;13.20;54.30
48043;DHT22;33988;47.992;8.820;2023-04-08T06:41:54;13.20;55.00
48043;DHT22;33988;47.992;8.820;2023-04-08T06:44:23;13.30;54.40
48043;DHT22;33988;47.992;8.820;2023-04-08T06:46:50;13.30;54.30
48043;DHT22;33988;47.992;8.820;2023-04-08T06:49:17;13.30;54.20
48043;DHT22;33988;47.992;8.820;2023-04-08T06:51:44;13.30;54.20
48043;DHT22;33988;47.992;8.820;2023-04-08T06:54:14;13.40;54.20
48043;DHT22;33988;47.992;8.820;2023-04-08T06:56:41;13.40;54.30
48043;DHT22;33988;47.992;8.820;2023-04-08T06:59:10;13.40;54.40
48043;DHT22;33988;47.992;8.820;2023-04-08T07:01:39;13.50;54.50
48043;DHT22;33988;47.992;8.820;2023-04-08T07:04:07;13.50;54.50
48043;DHT22;33988;47.992;8.820;2023-04-08T07:06:34;13.60;54.60
48043;DHT22;33988;47.992;8.820;2023-04-08T07:09:01;13.60;54.60
48043;DHT22;33988;47.992;8.820;2023-04-08T07:11:28;13.70;54.60
48043;DHT22;33988;47.992;8.820;2023-04-08T07:13:55;13.70;54.60
48043;DHT22;33988;47.992;8.820;2023-04-08T07:16:22;13.80;54.60
48043;DHT22;33988;47.992;8.820;2023-04-08T07:18:49;13.80;54.60
48043;DHT22;33988;47.992;8.820;2023-04-08T07:21:17;13.90;54.60
48043;DHT22;33988;47.992;8.820;2023-04-08T07:23:44;13.90;54.60
48043;DHT22;33988;47.992;8.820;2023-04-08T07:26:11;14.00;54.60
48043;DHT22;33988;47.992;8.820;2023-04-08T07:28:39;14.00;54.60
48043;DHT22;33988;47.992;8.820;2023-04-08T07:31:13;14.10;54.60
48043;DHT22;33988;47.992;8.820;2023-04-08T07:33:42;14.10;54.60
48043;DHT22;33988;47.992;8.820;2023-04-08T07:36:11;14.20;54.60
48043;DHT22;33988;47.992;8.820;2023-04-08T07:38:39;14.20;54.60
48043;DHT22;33988;47.992;8.820;2023-04-08T07:41:06;14.30;54.50
48043;DHT22;33988;47.992;8.820;2023-04-08T07:43:36;14.30;54.40
48043;DHT22;33988;47.992;8.820;2023-04-08T07:46:04;14.40;54.30
48043;DHT22;33988;47.992;8.820;2023-04-08T07:48:34;14.40;54.10
48043;DHT22;33988;47.992;8.820;2023-04-08T07:51:07;14.50;54.10
48043;DHT22;33988;47.992;8.820;2023-04-08T07:53:38;14.50;54.00
48043;DHT22;33988;47.992;8.820;2023-04-08T07:56:13;14.50;54.00
48043;DHT22;33988;47.992;8.820;2023-04-08T07:58:41;14.50;54.00
48043;DHT22;33988;47.992;8.820;2023-04-08T08:01:35;14.50;53.90
48043;DHT22;33988;47.992;8.820;2023-04-08T08:04:02;14.50;54.00
48043;DHT22;33988;47.992;8.820;2023-04-08T08:06:29;14.50;53.90
48043;DHT22;33988;47.992;8.820;2023-04-08T08:08:58;14.60;53.80
48043;DHT22;33988;47.992;8.820;2023-04-08T08:11:28;14.70;53.90
48043;DHT22;33988;47.992;8.820;2023-04-08T08:13:55;14.60;53.80
48043;DHT22;33988;47.992;8.820;2023-04-08T08:16:22;14.70;53.90
48043;DHT22;33988;47.992;8.820;2023-04-08T08:18:55;14.70;53.80
48043;DHT22;33988;47.992;8.820;2023-04-08T08:21:24;14.80;53.70
48043;DHT22;33988;47.992;8.820;2023-04-08T08:23:54;14.80;53.50
48043;DHT22;33988;47.992;8.820;2023-04-08T08:26:22;14.90;53.50
48043;DHT22;33988;47.992;8.820;2023-04-08T08:28:49;14.90;53.40
48043;DHT22;33988;47.992;8.820;2023-04-08T08:31:18;14.90;53.20
48043;DHT22;33988;47.992;8.820;2023-04-08T08:33:45;14.90;53.10
48043;DHT22;33988;47.992;8.820;2023-04-08T08:36:12;15.00;53.10
48043;DHT22;33988;47.992;8.820;2023-04-08T08:38:39;15.00;53.00
48043;DHT22;33988;47.992;8.820;2023-04-08T08:41:08;15.00;53.00
48043;DHT22;33988;47.992;8.820;2023-04-08T08:43:36;15.00;52.90
48043;DHT22;33988;47.992;8.820;2023-04-08T08:46:09;15.00;52.70
48043;DHT22;33988;47.992;8.820;2023-04-08T08:48:40;15.00;52.70
48043;DHT22;33988;47.992;8.820;2023-04-08T08:51:08;15.00;52.60
48043;DHT22;33988;47.992;8.820;2023-04-08T08:53:36;15.00;52.40
48043;DHT22;33988;47.992;8.820;2023-04-08T08:56:10;15.00;52.40
48043;DHT22;33988;47.992;8.820;2023-04-08T08:58:44;15.00;52.40
48043;DHT22;33988;47.992;8.820;2023-04-08T09:06:43;14.90;52.50
48043;DHT22;33988;47.992;8.820;2023-04-08T09:09:12;14.90;52.40
48043;DHT22;33988;47.992;8.820;2023-04-08T09:11:45;14.90;52.50
48043;DHT22;33988;47.992;8.820;2023-04-08T09:14:23;15.00;52.60
48043;DHT22;33988;47.992;8.820;2023-04-08T09:16:51;14.90;52.70
48043;DHT22;33988;47.992;8.820;2023-04-08T09:19:21;14.90;52.60
48043;DHT22;33988;47.992;8.820;2023-04-08T09:22:10;15.00;52.70
48043;DHT22;33988;47.992;8.820;2023-04-08T09:24:37;14.90;52.70
48043;DHT22;33988;47.992;8.820;2023-04-08T09:27:04;15.00;52.70
48043;DHT22;33988;47.992;8.820;2023-04-08T09:29:33;15.00;52.60
48043;DHT22;33988;47.992;8.820;2023-04-08T09:32:05;15.00;52.60
48043;DHT22;33988;47.992;8.820;2023-04-08T09:34:32;14.80;52.70
48043;DHT22;33988;47.992;8.820;2023-04-08T09:37:00;15.00;52.60
48043;DHT22;33988;47.992;8.820;2023-04-08T09:39:27;15.00;52.50
48043;DHT22;33988;47.992;8.820;2023-04-08T09:41:59;15.00;52.50
48043;DHT22;33988;47.992;8.820;2023-04-08T09:44:34;15.00;52.50
48043;DHT22;33988;47.992;8.820;2023-04-08T09:47:11;15.00;52.40
48043;DHT22;33988;47.992;8.820;2023-04-08T09:49:56;15.00;52.50
48043;DHT22;33988;47.992;8.820;2023-04-08T09:52:32;15.00;52.50
48043;DHT22;33988;47.992;8.820;2023-04-08T09:55:03;15.00;52.40
48043;DHT22;33988;47.992;8.820;2023-04-08T10:00:17;15.10;52.50
48043;DHT22;33988;47.992;8.820;2023-04-08T10:02:54;15.10;52.30
48043;DHT22;33988;47.992;8.820;2023-04-08T10:05:27;15.10;52.30
48043;DHT22;33988;47.992;8.820;2023-04-08T10:07:56;15.10;52.20
48043;DHT22;33988;47.992;8.820;2023-04-08T10:10:26;15.10;52.20
48043;DHT22;33988;47.992;8.820;2023-04-08T10:12:53;15.20;52.30
48043;DHT22;33988;47.992;8.820;2023-04-08T10:15:24;15.20;52.20
48043;DHT22;33988;47.992;8.820;2023-04-08T10:18:28;15.20;52.10
48043;DHT22;33988;47.992;8.820;2023-04-08T10:20:47;15.20;52.00
48043;DHT22;33988;47.992;8.820;2023-04-08T10:23:18;15.20;51.90
48043;DHT22;33988;47.992;8.820;2023-04-08T10:25:48;15.20;51.80
48043;DHT22;33988;47.992;8.820;2023-04-08T10:36:10;15.30;51.90
48043;DHT22;33988;47.992;8.820;2023-04-08T10:38:41;15.30;51.90
48043;DHT22;33988;47.992;8.820;2023-04-08T10:41:11;15.30;51.80
48043;DHT22;33988;47.992;8.820;2023-04-08T10:43:47;15.30;51.80
48043;DHT22;33988;47.992;8.820;2023-04-08T10:46:14;15.40;51.80
48043;DHT22;33988;47.992;8.820;2023-04-08T10:48:42;15.40;51.60
48043;DHT22;33988;47.992;8.820;2023-04-08T10:51:12;15.40;51.40
48043;DHT22;33988;47.992;8.820;2023-04-08T10:53:39;15.50;51.40
48043;DHT22;33988;47.992;8.820;2023-04-08T10:56:11;15.50;51.40
48043;DHT22;33988;47.992;8.820;2023-04-08T10:58:53;15.50;51.40
48043;DHT22;33988;47.992;8.820;2023-04-08T11:01:21;15.50;51.40
48043;DHT22;33988;47.992;8.820;2023-04-08T11:03:51;15.50;51.40
48043;DHT22;33988;47.992;8.820;2023-04-08T11:06:19;15.60;51.40
48043;DHT22;33988;47.992;8.820;2023-04-08T11:08:46;15.60;51.40
48043;DHT22;33988;47.992;8.820;2023-04-08T11:11:13;15.60;51.30
48043;DHT22;33988;47.992;8.820;2023-04-08T11:13:44;15.60;51.10
48043;DHT22;33988;47.992;8.820;2023-04-08T11:16:20;15.60;51.10
48043;DHT22;33988;47.992;8.820;2023-04-08T11:18:49;15.60;50.90
48043;DHT22;33988;47.992;8.820;2023-04-08T11:21:17;15.60;50.80
48043;DHT22;33988;47.992;8.820;2023-04-08T11:23:44;15.60;50.80
48043;DHT22;33988;47.992;8.820;2023-04-08T11:26:12;15.60;50.80
48043;DHT22;33988;47.992;8.820;2023-04-08T11:28:41;15.60;50.90
48043;DHT22;33988;47.992;8.820;2023-04-08T11:31:11;15.50;51.00
48043;DHT22;33988;47.992;8.820;2023-04-08T11:33:47;15.50;51.00
48043;DHT22;33988;47.992;8.820;2023-04-08T11:36:17;15.50;51.00
48043;DHT22;33988;47.992;8.820;2023-04-08T11:38:44;15.50;51.00
48043;DHT22;33988;47.992;8.820;2023-04-08T11:41:13;15.50;51.00
48043;DHT22;33988;47.992;8.820;2023-04-08T11:43:52;15.60;51.10
48043;DHT22;33988;47.992;8.820;2023-04-08T11:46:24;15.50;50.90
48043;DHT22;33988;47.992;8.820;2023-04-08T11:49:05;15.50;50.90
48043;DHT22;33988;47.992;8.820;2023-04-08T11:51:34;15.50;50.70
48043;DHT22;33988;47.992;8.820;2023-04-08T11:54:27;15.30;50.70
48043;DHT22;33988;47.992;8.820;2023-04-08T11:56:55;15.50;50.70
48043;DHT22;33988;47.992;8.820;2023-04-08T11:59:24;15.60;50.80
48043;DHT22;33988;47.992;8.820;2023-04-08T12:01:54;15.60;50.80
48043;DHT22;33988;47.992;8.820;2023-04-08T12:04:24;15.60;51.50
48043;DHT22;33988;47.992;8.820;2023-04-08T12:06:52;15.70;50.80
48043;DHT22;33988;47.992;8.820;2023-04-08T12:09:18;15.70;50.90
48043;DHT22;33988;47.992;8.820;2023-04-08T12:11:47;15.70;51.10
48043;DHT22;33988;47.992;8.820;2023-04-08T12:14:14;15.80;51.00
48043;DHT22;33988;47.992;8.820;2023-04-08T12:16:44;15.80;51.00
48043;DHT22;33988;47.992;8.820;2023-04-08T12:19:13;15.80;50.80
48043;DHT22;33988;47.992;8.820;2023-04-08T12:21:45;15.90;50.70
48043;DHT22;33988;47.992;8.820;2023-04-08T12:24:13;15.90;50.60
48043;DHT22;33988;47.992;8.820;2023-04-08T12:26:42;16.00;50.50
48043;DHT22;33988;47.992;8.820;2023-04-08T12:29:09;16.00;50.40
48043;DHT22;33988;47.992;8.820;2023-04-08T12:31:37;16.00;50.40
48043;DHT22;33988;47.992;8.820;2023-04-08T12:34:04;16.00;50.30
48043;DHT22;33988;47.992;8.820;2023-04-08T12:36:32;16.00;50.20
48043;DHT22;33988;47.992;8.820;2023-04-08T12:38:59;16.10;50.10
48043;DHT22;33988;47.992;8.820;2023-04-08T12:41:26;16.10;50.10
48043;DHT22;33988;47.992;8.820;2023-04-08T12:43:53;16.10;50.00
48043;DHT22;33988;47.992;8.820;2023-04-08T12:46:20;16.10;50.00
48043;DHT22;33988;47.992;8.820;2023-04-08T12:48:47;16.10;50.00
48043;DHT22;33988;47.992;8.820;2023-04-08T12:51:16;16.00;49.80
48043;DHT22;33988;47.992;8.820;2023-04-08T12:53:43;16.00;49.80
48043;DHT22;33988;47.992;8.820;2023-04-08T12:56:10;16.00;49.80
48043;DHT22;33988;47.992;8.820;2023-04-08T12:58:40;16.00;49.80
48043;DHT22;33988;47.992;8.820;2023-04-08T13:01:06;16.00;49.80
48043;DHT22;33988;47.992;8.820;2023-04-08T13:03:38;16.00;49.90
48043;DHT22;33988;47.992;8.820;2023-04-08T13:06:05;16.00;50.00
48043;DHT22;33988;47.992;8.820;2023-04-08T13:08:34;16.00;50.00
48043;DHT22;33988;47.992;8.820;2023-04-08T13:11:04;16.00;50.00
48043;DHT22;33988;47.992;8.820;2023-04-08T13:13:33;16.00;50.00
48043;DHT22;33988;47.992;8.820;2023-04-08T13:16:00;16.00;50.00
48043;DHT22;33988;47.992;8.820;2023-04-08T13:18:28;16.10;50.00
48043;DHT22;33988;47.992;8.820;2023-04-08T13:20:57;16.10;50.00
48043;DHT22;33988;47.992;8.820;2023-04-08T13:23:24;16.10;49.90
48043;DHT22;33988;47.992;8.820;2023-04-08T13:25:51;16.10;49.90
48043;DHT22;33988;47.992;8.820;2023-04-08T13:28:18;16.10;49.70
48043;DHT22;33988;47.992;8.820;2023-04-08T13:30:47;16.10;49.50
48043;DHT22;33988;47.992;8.820;2023-04-08T13:33:14;16.10;49.40
48043;DHT22;33988;47.992;8.820;2023-04-08T13:35:44;16.10;49.30
48043;DHT22;33988;47.992;8.820;2023-04-08T13:38:14;16.10;49.20
48043;DHT22;33988;47.992;8.820;2023-04-08T13:40:43;16.20;49.20
48043;DHT22;33988;47.992;8.820;2023-04-08T13:43:12;16.20;49.00
48043;DHT22;33988;47.992;8.820;2023-04-08T13:45:40;16.20;48.80
48043;DHT22;33988;47.992;8.820;2023-04-08T13:48:07;16.20;48.70
48043;DHT22;33988;47.992;8.820;2023-04-08T13:50:39;16.20;48.60
48043;DHT22;33988;47.992;8.820;2023-04-08T13:53:07;16.20;48.60
48043;DHT22;33988;47.992;8.820;2023-04-08T13:55:36;16.20;48.60
48043;DHT22;33988;47.992;8.820;2023-04-08T13:58:06;16.30;48.50
48043;DHT22;33988;47.992;8.820;2023-04-08T14:00:51;16.20;48.30
48043;DHT22;33988;47.992;8.820;2023-04-08T14:03:21;16.20;48.30
48043;DHT22;33988;47.992;8.820;2023-04-08T14:05:48;16.20;48.40
48043;DHT22;33988;47.992;8.820;2023-04-08T14:08:16;16.30;48.40
48043;DHT22;33988;47.992;8.820;2023-04-08T14:10:54;16.30;48.40
48043;DHT22;33988;47.992;8.820;2023-04-08T14:13:21;16.30;48.50
48043;DHT22;33988;47.992;8.820;2023-04-08T14:15:49;16.30;48.40
48043;DHT22;33988;47.992;8.820;2023-04-08T14:18:15;16.30;48.20
48043;DHT22;33988;47.992;8.820;2023-04-08T14:20:43;16.30;47.90
48043;DHT22;33988;47.992;8.820;2023-04-08T14:23:10;16.30;47.70
48043;DHT22;33988;47.992;8.820;2023-04-08T14:25:39;16.30;47.60
48043;DHT22;33988;47.992;8.820;2023-04-08T14:28:09;16.30;47.60
48043;DHT22;33988;47.992;8.820;2023-04-08T14:30:36;16.30;47.70
48043;DHT22;33988;47.992;8.820;2023-04-08T14:33:03;16.30;47.60
48043;DHT22;33988;47.992;8.820;2023-04-08T14:35:33;16.40;47.60
48043;DHT22;33988;47.992;8.820;2023-04-08T14:38:03;16.40;47.60
48043;DHT22;33988;47.992;8.820;2023-04-08T14:40:30;16.40;47.40
48043;DHT22;33988;47.992;8.820;2023-04-08T14:42:57;16.40;47.40
48043;DHT22;33988;47.992;8.820;2023-04-08T14:45:28;16.40;47.30
48043;DHT22;33988;47.992;8.820;2023-04-08T14:47:55;16.40;47.20
48043;DHT22;33988;47.992;8.820;2023-04-08T14:50:22;16.40;47.00
48043;DHT22;33988;47.992;8.820;2023-04-08T14:52:49;16.50;47.00
48043;DHT22;33988;47.992;8.820;2023-04-08T14:55:20;16.40;46.90
48043;DHT22;33988;47.992;8.820;2023-04-08T14:57:48;16.40;46.70
48043;DHT22;33988;47.992;8.820;2023-04-08T15:00:17;16.40;46.50
48043;DHT22;33988;47.992;8.820;2023-04-08T15:02:44;16.40;46.40
48043;DHT22;33988;47.992;8.820;2023-04-08T15:05:11;16.40;46.40
48043;DHT22;33988;47.992;8.820;2023-04-08T15:07:38;16.40;46.30
48043;DHT22;33988;47.992;8.820;2023-04-08T15:10:06;16.30;46.30
48043;DHT22;33988;47.992;8.820;2023-04-08T15:12:35;16.30;46.20
48043;DHT22;33988;47.992;8.820;2023-04-08T15:15:03;16.40;46.20
48043;DHT22;33988;47.992;8.820;2023-04-08T15:17:32;16.30;46.10
48043;DHT22;33988;47.992;8.820;2023-04-08T15:19:59;16.40;46.10
48043;DHT22;33988;47.992;8.820;2023-04-08T15:22:26;16.40;46.00
48043;DHT22;33988;47.992;8.820;2023-04-08T15:24:53;16.40;45.80
48043;DHT22;33988;47.992;8.820;2023-04-08T15:27:20;16.40;45.60
48043;DHT22;33988;47.992;8.820;2023-04-08T15:29:47;16.30;45.50
48043;DHT22;33988;47.992;8.820;2023-04-08T15:32:16;16.40;45.50
48043;DHT22;33988;47.992;8.820;2023-04-08T15:34:45;16.30;46.00
48043;DHT22;33988;47.992;8.820;2023-04-08T15:37:13;16.30;45.10
48043;DHT22;33988;47.992;8.820;2023-04-08T15:39:40;16.30;45.00
48043;DHT22;33988;47.992;8.820;2023-04-08T15:42:07;16.30;45.00
48043;DHT22;33988;47.992;8.820;2023-04-08T15:44:38;16.30;45.00
48043;DHT22;33988;47.992;8.820;2023-04-08T15:47:07;16.30;45.10
48043;DHT22;33988;47.992;8.820;2023-04-08T15:49:37;16.30;45.10
48043;DHT22;33988;47.992;8.820;2023-04-08T15:52:04;16.20;45.10
48043;DHT22;33988;47.992;8.820;2023-04-08T15:54:35;16.20;45.20
48043;DHT22;33988;47.992;8.820;2023-04-08T15:57:02;16.20;45.10
48043;DHT22;33988;47.992;8.820;2023-04-08T15:59:31;16.20;45.10
48043;DHT22;33988;47.992;8.820;2023-04-08T16:02:01;16.20;45.20
48043;DHT22;33988;47.992;8.820;2023-04-08T16:04:28;16.20;45.20